sensor_id;sensor_type;location;lat;lon;timestamp;temperature;humidity
26224;DHT22;14820;48.682;8.890;2024-01-30T00:01:29;2.10;99.90
26224;DHT22;14820;48.682;8.890;2024-01-30T00:03:54;2.00;99.90
26224;DHT22;14820;48.682;8.890;2024-01-30T00:06:20;2.00;99.90
26224;DHT22;14820;48.682;8.890;2024-01-30T00:08:49;1.90;99.90
26224;DHT22;14820;48.682;8.890;2024-01-30T00:11:16;1.90;99.90
26224;DHT22;14820;48.682;8.890;2024-01-30T00:13:41;1.90;99.90
26224;DHT22;14820;48.682;8.890;2024-01-30T00:16:07;1.80;99.90
26224;DHT22;14820;48.682;8.890;2024-01-30T00:18:34;1.80;99.90
26224;DHT22;14820;48.682;8.890;2024-01-30T00:21:00;1.80;99.90
26224;DHT22;14820;48.682;8.890;2024-01-30T00:23:25;1.90;99.90
26224;DHT22;14820;48.682;8.890;2024-01-30T00:25:51;1.90;99.90
26224;DHT22;14820;48.682;8.890;2024-01-30T00:28:17;1.90;99.90
26224;DHT22;14820;48.682;8.890;2024-01-30T00:30:42;1.90;99.90
26224;DHT22;14820;48.682;8.890;2024-01-30T00:33:09;1.90;99.90
26224;DHT22;14820;48.682;8.890;2024-01-30T00:35:34;1.90;99.90
26224;DHT22;14820;48.682;8.890;2024-01-30T00:38:00;1.90;99.90
26224;DHT22;14820;48.682;8.890;2024-01-30T00:40:26;1.90;99.90
26224;DHT22;14820;48.682;8.890;2024-01-30T00:42:51;1.90;99.90
26224;DHT22;14820;48.682;8.890;2024-01-30T00:45:17;1.90;99.90
26224;DHT22;14820;48.682;8.890;2024-01-30T00:47:44;1.90;99.90
26224;DHT22;14820;48.682;8.890;2024-01-30T00:50:11;2.00;99.90
26224;DHT22;14820;48.682;8.890;2024-01-30T00:52:36;1.90;99.90
26224;DHT22;14820;48.682;8.890;2024-01-30T00:55:04;1.90;99.90
26224;DHT22;14820;48.682;8.890;2024-01-30T00:57:30;1.90;99.90
26224;DHT22;14820;48.682;8.890;2024-01-30T00:59:56;1.90;99.90
26224;DHT22;14820;48.682;8.890;2024-01-30T01:02:22;1.90;99.90
26224;DHT22;14820;48.682;8.890;2024-01-30T01:04:47;1.90;99.90
26224;DHT22;14820;48.682;8.890;2024-01-30T01:07:13;1.90;99.90
26224;DHT22;14820;48.682;8.890;2024-01-30T01:09:39;1.90;99.90
26224;DHT22;14820;48.682;8.890;2024-01-30T01:12:05;1.90;99.90
26224;DHT22;14820;48.682;8.890;2024-01-30T01:14:30;1.80;99.90
26224;DHT22;14820;48.682;8.890;2024-01-30T01:16:56;1.80;99.90
26224;DHT22;14820;48.682;8.890;2024-01-30T01:19:22;1.80;99.90
26224;DHT22;14820;48.682;8.890;2024-01-30T01:21:48;1.80;99.90
26224;DHT22;14820;48.682;8.890;2024-01-30T01:24:13;1.70;99.90
26224;DHT22;14820;48.682;8.890;2024-01-30T01:26:39;1.80;99.90
26224;DHT22;14820;48.682;8.890;2024-01-30T01:29:06;1.80;99.90
26224;DHT22;14820;48.682;8.890;2024-01-30T01:31:38;1.70;99.90
26224;DHT22;14820;48.682;8.890;2024-01-30T01:34:11;1.70;99.90
26224;DHT22;14820;48.682;8.890;2024-01-30T01:36:37;1.70;99.90
26224;DHT22;14820;48.682;8.890;2024-01-30T01:39:03;1.70;99.90
26224;DHT22;14820;48.682;8.890;2024-01-30T01:41:33;1.60;99.90
26224;DHT22;14820;48.682;8.890;2024-01-30T01:43:59;1.60;99.90
26224;DHT22;14820;48.682;8.890;2024-01-30T01:46:26;1.60;99.90
26224;DHT22;14820;48.682;8.890;2024-01-30T01:48:53;1.70;99.90
26224;DHT22;14820;48.682;8.890;2024-01-30T01:51:19;1.70;99.90
26224;DHT22;14820;48.682;8.890;2024-01-30T01:53:45;1.70;99.90
26224;DHT22;14820;48.682;8.890;2024-01-30T01:56:11;1.70;99.90
26224;DHT22;14820;48.682;8.890;2024-01-30T01:58:37;1.70;99.90
26224;DHT22;14820;48.682;8.890;2024-01-30T02:01:04;1.70;99.90
26224;DHT22;14820;48.682;8.890;2024-01-30T02:03:30;1.70;99.90
26224;DHT22;14820;48.682;8.890;2024-01-30T02:05:56;1.60;99.90
26224;DHT22;14820;48.682;8.890;2024-01-30T02:08:23;1.50;99.90
26224;DHT22;14820;48.682;8.890;2024-01-30T02:10:49;1.40;99.90
26224;DHT22;14820;48.682;8.890;2024-01-30T02:13:15;1.40;99.90
26224;DHT22;14820;48.682;8.890;2024-01-30T02:15:40;1.50;99.90
26224;DHT22;14820;48.682;8.890;2024-01-30T02:18:06;1.40;99.90
26224;DHT22;14820;48.682;8.890;2024-01-30T02:20:34;1.40;99.90
26224;DHT22;14820;48.682;8.890;2024-01-30T02:23:01;1.50;99.90
26224;DHT22;14820;48.682;8.890;2024-01-30T02:25:31;1.50;99.90
26224;DHT22;14820;48.682;8.890;2024-01-30T02:27:57;1.50;99.90
26224;DHT22;14820;48.682;8.890;2024-01-30T02:30:23;1.50;99.90
26224;DHT22;14820;48.682;8.890;2024-01-30T02:32:48;1.50;99.90
26224;DHT22;14820;48.682;8.890;2024-01-30T02:35:14;1.50;99.90
26224;DHT22;14820;48.682;8.890;2024-01-30T02:37:39;1.50;99.90
26224;DHT22;14820;48.682;8.890;2024-01-30T02:40:06;1.40;99.90
26224;DHT22;14820;48.682;8.890;2024-01-30T02:42:31;1.40;99.90
26224;DHT22;14820;48.682;8.890;2024-01-30T02:44:57;1.30;99.90
26224;DHT22;14820;48.682;8.890;2024-01-30T02:47:23;1.40;99.90
26224;DHT22;14820;48.682;8.890;2024-01-30T02:49:48;1.30;99.90
26224;DHT22;14820;48.682;8.890;2024-01-30T02:52:14;1.30;99.90
26224;DHT22;14820;48.682;8.890;2024-01-30T02:54:39;1.30;99.90
26224;DHT22;14820;48.682;8.890;2024-01-30T02:57:05;1.20;99.90
26224;DHT22;14820;48.682;8.890;2024-01-30T02:59:30;1.30;99.90
26224;DHT22;14820;48.682;8.890;2024-01-30T03:01:58;1.30;99.90
26224;DHT22;14820;48.682;8.890;2024-01-30T03:04:24;1.30;99.90
26224;DHT22;14820;48.682;8.890;2024-01-30T03:06:50;1.30;99.90
26224;DHT22;14820;48.682;8.890;2024-01-30T03:09:17;1.30;99.90
26224;DHT22;14820;48.682;8.890;2024-01-30T03:11:43;1.20;99.90
26224;DHT22;14820;48.682;8.890;2024-01-30T03:14:09;1.20;99.90
26224;DHT22;14820;48.682;8.890;2024-01-30T03:16:37;1.20;99.90
26224;DHT22;14820;48.682;8.890;2024-01-30T03:19:04;1.10;99.90
26224;DHT22;14820;48.682;8.890;2024-01-30T03:21:30;1.10;99.90
26224;DHT22;14820;48.682;8.890;2024-01-30T03:23:56;1.10;99.90
26224;DHT22;14820;48.682;8.890;2024-01-30T03:26:21;1.10;99.90
26224;DHT22;14820;48.682;8.890;2024-01-30T03:28:47;1.10;99.90
26224;DHT22;14820;48.682;8.890;2024-01-30T03:31:15;1.10;99.90
26224;DHT22;14820;48.682;8.890;2024-01-30T03:33:41;1.10;99.90
26224;DHT22;14820;48.682;8.890;2024-01-30T03:36:08;1.10;99.90
26224;DHT22;14820;48.682;8.890;2024-01-30T03:38:33;1.10;99.90
26224;DHT22;14820;48.682;8.890;2024-01-30T03:40:59;1.10;99.90
26224;DHT22;14820;48.682;8.890;2024-01-30T03:43:25;1.10;99.90
26224;DHT22;14820;48.682;8.890;2024-01-30T03:45:51;1.10;99.90
26224;DHT22;14820;48.682;8.890;2024-01-30T03:48:16;1.00;99.90
26224;DHT22;14820;48.682;8.890;2024-01-30T03:50:42;1.00;99.90
26224;DHT22;14820;48.682;8.890;2024-01-30T03:53:08;1.00;99.90
26224;DHT22;14820;48.682;8.890;2024-01-30T03:55:33;1.00;99.90
26224;DHT22;14820;48.682;8.890;2024-01-30T03:57:59;1.00;99.90
26224;DHT22;14820;48.682;8.890;2024-01-30T04:00:25;1.00;99.90
26224;DHT22;14820;48.682;8.890;2024-01-30T04:02:50;1.00;99.90
26224;DHT22;14820;48.682;8.890;2024-01-30T04:05:16;1.00;99.90
26224;DHT22;14820;48.682;8.890;2024-01-30T04:07:42;1.00;99.90
26224;DHT22;14820;48.682;8.890;2024-01-30T04:10:09;1.00;99.90
26224;DHT22;14820;48.682;8.890;2024-01-30T04:12:35;1.00;99.90
26224;DHT22;14820;48.682;8.890;2024-01-30T04:15:01;1.00;99.90
26224;DHT22;14820;48.682;8.890;2024-01-30T04:17:27;1.00;99.90
26224;DHT22;14820;48.682;8.890;2024-01-30T04:19:54;0.90;99.90
26224;DHT22;14820;48.682;8.890;2024-01-30T04:22:20;0.80;99.90
26224;DHT22;14820;48.682;8.890;2024-01-30T04:24:46;0.80;99.90
26224;DHT22;14820;48.682;8.890;2024-01-30T04:27:11;0.70;99.90
26224;DHT22;14820;48.682;8.890;2024-01-30T04:29:37;0.70;99.90
26224;DHT22;14820;48.682;8.890;2024-01-30T04:32:03;0.60;99.90
26224;DHT22;14820;48.682;8.890;2024-01-30T04:34:28;0.70;99.90
26224;DHT22;14820;48.682;8.890;2024-01-30T04:36:54;0.70;99.90
26224;DHT22;14820;48.682;8.890;2024-01-30T04:39:20;0.70;99.90
26224;DHT22;14820;48.682;8.890;2024-01-30T04:41:45;0.70;99.90
26224;DHT22;14820;48.682;8.890;2024-01-30T04:44:11;0.70;99.90
26224;DHT22;14820;48.682;8.890;2024-01-30T04:46:37;0.70;99.90
26224;DHT22;14820;48.682;8.890;2024-01-30T04:49:02;0.70;99.90
26224;DHT22;14820;48.682;8.890;2024-01-30T04:51:29;0.70;99.90
26224;DHT22;14820;48.682;8.890;2024-01-30T04:53:55;0.70;99.90
26224;DHT22;14820;48.682;8.890;2024-01-30T04:56:21;0.70;99.90
26224;DHT22;14820;48.682;8.890;2024-01-30T04:58:46;0.60;99.90
26224;DHT22;14820;48.682;8.890;2024-01-30T05:01:18;0.70;99.90
26224;DHT22;14820;48.682;8.890;2024-01-30T05:03:44;0.70;99.90
26224;DHT22;14820;48.682;8.890;2024-01-30T05:06:10;0.70;99.90
26224;DHT22;14820;48.682;8.890;2024-01-30T05:08:36;0.80;99.90
26224;DHT22;14820;48.682;8.890;2024-01-30T05:11:05;0.80;99.90
26224;DHT22;14820;48.682;8.890;2024-01-30T05:13:31;0.80;99.90
26224;DHT22;14820;48.682;8.890;2024-01-30T05:15:57;0.80;99.90
26224;DHT22;14820;48.682;8.890;2024-01-30T05:18:22;0.80;99.90
26224;DHT22;14820;48.682;8.890;2024-01-30T05:20:50;0.80;99.90
26224;DHT22;14820;48.682;8.890;2024-01-30T05:23:16;0.80;99.90
26224;DHT22;14820;48.682;8.890;2024-01-30T05:25:41;0.70;99.90
26224;DHT22;14820;48.682;8.890;2024-01-30T05:28:07;0.70;99.90
26224;DHT22;14820;48.682;8.890;2024-01-30T05:30:33;0.70;99.90
26224;DHT22;14820;48.682;8.890;2024-01-30T05:32:58;0.60;99.90
26224;DHT22;14820;48.682;8.890;2024-01-30T05:35:24;0.60;99.90
26224;DHT22;14820;48.682;8.890;2024-01-30T05:37:49;0.60;99.90
26224;DHT22;14820;48.682;8.890;2024-01-30T05:40:15;0.60;99.90
26224;DHT22;14820;48.682;8.890;2024-01-30T05:42:42;0.60;99.90
26224;DHT22;14820;48.682;8.890;2024-01-30T05:45:08;0.60;99.90
26224;DHT22;14820;48.682;8.890;2024-01-30T05:47:37;0.60;99.90
26224;DHT22;14820;48.682;8.890;2024-01-30T05:50:02;0.50;99.90
26224;DHT22;14820;48.682;8.890;2024-01-30T05:52:28;0.50;99.90
26224;DHT22;14820;48.682;8.890;2024-01-30T05:54:54;0.50;99.90
26224;DHT22;14820;48.682;8.890;2024-01-30T05:57:20;0.50;99.90
26224;DHT22;14820;48.682;8.890;2024-01-30T05:59:45;0.50;99.90
26224;DHT22;14820;48.682;8.890;2024-01-30T06:02:13;0.60;99.90
26224;DHT22;14820;48.682;8.890;2024-01-30T06:04:39;0.50;99.90
26224;DHT22;14820;48.682;8.890;2024-01-30T06:07:04;0.60;99.90
26224;DHT22;14820;48.682;8.890;2024-01-30T06:09:31;0.50;99.90
26224;DHT22;14820;48.682;8.890;2024-01-30T06:11:57;0.50;99.90
26224;DHT22;14820;48.682;8.890;2024-01-30T06:14:23;0.50;99.90
26224;DHT22;14820;48.682;8.890;2024-01-30T06:16:49;0.50;99.90
26224;DHT22;14820;48.682;8.890;2024-01-30T06:19:15;0.50;99.90
26224;DHT22;14820;48.682;8.890;2024-01-30T06:21:41;0.50;99.90
26224;DHT22;14820;48.682;8.890;2024-01-30T06:24:06;0.50;99.90
26224;DHT22;14820;48.682;8.890;2024-01-30T06:26:32;0.50;99.90
26224;DHT22;14820;48.682;8.890;2024-01-30T06:28:58;0.50;99.90
26224;DHT22;14820;48.682;8.890;2024-01-30T06:31:23;0.50;99.90
26224;DHT22;14820;48.682;8.890;2024-01-30T06:33:50;0.50;99.90
26224;DHT22;14820;48.682;8.890;2024-01-30T06:36:16;0.50;99.90
26224;DHT22;14820;48.682;8.890;2024-01-30T06:38:41;0.50;99.90
26224;DHT22;14820;48.682;8.890;2024-01-30T06:41:07;0.50;99.90
26224;DHT22;14820;48.682;8.890;2024-01-30T06:43:33;0.50;99.90
26224;DHT22;14820;48.682;8.890;2024-01-30T06:45:58;0.50;99.90
26224;DHT22;14820;48.682;8.890;2024-01-30T06:48:25;0.50;99.90
26224;DHT22;14820;48.682;8.890;2024-01-30T06:50:53;0.50;99.90
26224;DHT22;14820;48.682;8.890;2024-01-30T06:53:19;0.50;99.90
26224;DHT22;14820;48.682;8.890;2024-01-30T06:55:45;0.50;99.90
26224;DHT22;14820;48.682;8.890;2024-01-30T06:58:11;0.50;99.90
26224;DHT22;14820;48.682;8.890;2024-01-30T07:00:37;0.50;99.90
26224;DHT22;14820;48.682;8.890;2024-01-30T07:03:03;0.50;99.90
26224;DHT22;14820;48.682;8.890;2024-01-30T07:05:28;0.50;99.90
26224;DHT22;14820;48.682;8.890;2024-01-30T07:07:54;0.50;99.90
26224;DHT22;14820;48.682;8.890;2024-01-30T07:10:20;0.50;99.90
26224;DHT22;14820;48.682;8.890;2024-01-30T07:12:46;0.50;99.90
26224;DHT22;14820;48.682;8.890;2024-01-30T07:15:11;0.50;99.90
26224;DHT22;14820;48.682;8.890;2024-01-30T07:17:39;0.50;99.90
26224;DHT22;14820;48.682;8.890;2024-01-30T07:20:06;0.50;99.90
26224;DHT22;14820;48.682;8.890;2024-01-30T07:22:33;0.50;99.90
26224;DHT22;14820;48.682;8.890;2024-01-30T07:24:59;0.50;99.90
26224;DHT22;14820;48.682;8.890;2024-01-30T07:27:24;0.50;99.90
26224;DHT22;14820;48.682;8.890;2024-01-30T07:29:50;0.50;99.90
26224;DHT22;14820;48.682;8.890;2024-01-30T07:32:16;0.50;99.90
26224;DHT22;14820;48.682;8.890;2024-01-30T07:34:41;0.50;99.90
26224;DHT22;14820;48.682;8.890;2024-01-30T07:37:07;0.50;99.90
26224;DHT22;14820;48.682;8.890;2024-01-30T07:39:34;0.60;99.90
26224;DHT22;14820;48.682;8.890;2024-01-30T07:42:00;0.60;99.90
26224;DHT22;14820;48.682;8.890;2024-01-30T07:44:25;0.60;99.90
26224;DHT22;14820;48.682;8.890;2024-01-30T07:46:51;0.60;99.90
26224;DHT22;14820;48.682;8.890;2024-01-30T07:49:17;0.70;99.90
26224;DHT22;14820;48.682;8.890;2024-01-30T07:51:43;0.70;99.90
26224;DHT22;14820;48.682;8.890;2024-01-30T07:54:09;0.70;99.90
26224;DHT22;14820;48.682;8.890;2024-01-30T07:56:34;0.80;99.90
26224;DHT22;14820;48.682;8.890;2024-01-30T07:59:00;0.80;99.90
26224;DHT22;14820;48.682;8.890;2024-01-30T08:01:26;0.90;99.90
26224;DHT22;14820;48.682;8.890;2024-01-30T08:03:51;0.90;99.90
26224;DHT22;14820;48.682;8.890;2024-01-30T08:06:17;0.90;99.90
26224;DHT22;14820;48.682;8.890;2024-01-30T08:08:43;1.00;99.90
26224;DHT22;14820;48.682;8.890;2024-01-30T08:11:08;1.00;99.90
26224;DHT22;14820;48.682;8.890;2024-01-30T08:13:34;1.00;99.90
26224;DHT22;14820;48.682;8.890;2024-01-30T08:15:59;1.00;99.90
26224;DHT22;14820;48.682;8.890;2024-01-30T08:18:25;1.00;99.90
26224;DHT22;14820;48.682;8.890;2024-01-30T08:20:51;1.00;99.90
26224;DHT22;14820;48.682;8.890;2024-01-30T08:23:17;1.10;99.90
26224;DHT22;14820;48.682;8.890;2024-01-30T08:25:43;1.10;99.90
26224;DHT22;14820;48.682;8.890;2024-01-30T08:28:08;1.10;99.90
26224;DHT22;14820;48.682;8.890;2024-01-30T08:30:34;1.20;99.90
26224;DHT22;14820;48.682;8.890;2024-01-30T08:32:59;1.20;99.90
26224;DHT22;14820;48.682;8.890;2024-01-30T08:35:25;1.30;99.90
26224;DHT22;14820;48.682;8.890;2024-01-30T08:37:51;1.30;99.90
26224;DHT22;14820;48.682;8.890;2024-01-30T08:40:16;1.30;99.90
26224;DHT22;14820;48.682;8.890;2024-01-30T08:42:42;1.40;99.90
26224;DHT22;14820;48.682;8.890;2024-01-30T08:45:08;1.40;99.90
26224;DHT22;14820;48.682;8.890;2024-01-30T08:47:34;1.50;99.90
26224;DHT22;14820;48.682;8.890;2024-01-30T08:50:00;1.50;99.90
26224;DHT22;14820;48.682;8.890;2024-01-30T08:52:26;1.60;99.90
26224;DHT22;14820;48.682;8.890;2024-01-30T08:54:51;1.60;99.90
26224;DHT22;14820;48.682;8.890;2024-01-30T08:57:17;1.70;99.90
26224;DHT22;14820;48.682;8.890;2024-01-30T08:59:43;1.80;99.90
26224;DHT22;14820;48.682;8.890;2024-01-30T09:02:11;1.90;99.90
26224;DHT22;14820;48.682;8.890;2024-01-30T09:04:38;1.90;99.90
26224;DHT22;14820;48.682;8.890;2024-01-30T09:07:04;2.10;99.90
26224;DHT22;14820;48.682;8.890;2024-01-30T09:09:34;2.10;99.90
26224;DHT22;14820;48.682;8.890;2024-01-30T09:11:59;2.20;99.90
26224;DHT22;14820;48.682;8.890;2024-01-30T09:14:30;2.20;99.90
26224;DHT22;14820;48.682;8.890;2024-01-30T09:16:56;2.30;99.90
26224;DHT22;14820;48.682;8.890;2024-01-30T09:19:22;2.30;99.90
26224;DHT22;14820;48.682;8.890;2024-01-30T09:21:47;2.40;99.90
26224;DHT22;14820;48.682;8.890;2024-01-30T09:24:13;2.40;99.90
26224;DHT22;14820;48.682;8.890;2024-01-30T09:26:38;2.50;99.90
26224;DHT22;14820;48.682;8.890;2024-01-30T09:29:04;2.50;99.90
26224;DHT22;14820;48.682;8.890;2024-01-30T09:31:30;2.60;99.90
26224;DHT22;14820;48.682;8.890;2024-01-30T09:33:55;2.70;99.90
26224;DHT22;14820;48.682;8.890;2024-01-30T09:36:21;2.70;99.90
26224;DHT22;14820;48.682;8.890;2024-01-30T09:38:47;2.80;99.90
26224;DHT22;14820;48.682;8.890;2024-01-30T09:41:13;2.90;99.90
26224;DHT22;14820;48.682;8.890;2024-01-30T09:43:39;2.90;99.90
26224;DHT22;14820;48.682;8.890;2024-01-30T09:46:11;3.00;99.90
26224;DHT22;14820;48.682;8.890;2024-01-30T09:48:39;3.10;99.90
26224;DHT22;14820;48.682;8.890;2024-01-30T09:51:08;3.10;99.90
26224;DHT22;14820;48.682;8.890;2024-01-30T09:53:33;3.20;99.90
26224;DHT22;14820;48.682;8.890;2024-01-30T09:56:01;3.30;99.90
26224;DHT22;14820;48.682;8.890;2024-01-30T09:58:27;3.40;99.90
26224;DHT22;14820;48.682;8.890;2024-01-30T10:00:53;3.40;99.90
26224;DHT22;14820;48.682;8.890;2024-01-30T10:03:19;3.50;99.90
26224;DHT22;14820;48.682;8.890;2024-01-30T10:05:51;3.50;99.90
26224;DHT22;14820;48.682;8.890;2024-01-30T10:08:19;3.60;99.90
26224;DHT22;14820;48.682;8.890;2024-01-30T10:10:47;3.70;99.90
26224;DHT22;14820;48.682;8.890;2024-01-30T10:13:13;3.70;99.90
26224;DHT22;14820;48.682;8.890;2024-01-30T10:15:38;3.80;99.90
26224;DHT22;14820;48.682;8.890;2024-01-30T10:18:05;3.90;99.90
26224;DHT22;14820;48.682;8.890;2024-01-30T10:20:32;3.90;99.90
26224;DHT22;14820;48.682;8.890;2024-01-30T10:22:58;4.00;99.90
26224;DHT22;14820;48.682;8.890;2024-01-30T10:25:25;4.10;99.90
26224;DHT22;14820;48.682;8.890;2024-01-30T10:27:55;4.10;99.90
26224;DHT22;14820;48.682;8.890;2024-01-30T10:30:22;4.20;99.90
26224;DHT22;14820;48.682;8.890;2024-01-30T10:32:48;4.30;99.90
26224;DHT22;14820;48.682;8.890;2024-01-30T10:35:14;4.40;99.90
26224;DHT22;14820;48.682;8.890;2024-01-30T10:37:39;4.50;99.90
26224;DHT22;14820;48.682;8.890;2024-01-30T10:40:05;4.60;99.90
26224;DHT22;14820;48.682;8.890;2024-01-30T10:42:32;4.70;99.90
26224;DHT22;14820;48.682;8.890;2024-01-30T10:45:10;4.90;99.90
26224;DHT22;14820;48.682;8.890;2024-01-30T10:47:48;5.00;99.90
26224;DHT22;14820;48.682;8.890;2024-01-30T10:50:15;5.10;99.90
26224;DHT22;14820;48.682;8.890;2024-01-30T10:52:41;5.30;99.90
26224;DHT22;14820;48.682;8.890;2024-01-30T10:55:08;5.40;99.90
26224;DHT22;14820;48.682;8.890;2024-01-30T10:57:37;5.50;99.90
26224;DHT22;14820;48.682;8.890;2024-01-30T11:00:08;5.60;99.90
26224;DHT22;14820;48.682;8.890;2024-01-30T11:02:43;5.90;99.90
26224;DHT22;14820;48.682;8.890;2024-01-30T11:05:10;6.00;99.90
26224;DHT22;14820;48.682;8.890;2024-01-30T11:07:35;6.10;99.90
26224;DHT22;14820;48.682;8.890;2024-01-30T11:10:03;6.20;99.90
26224;DHT22;14820;48.682;8.890;2024-01-30T11:12:30;6.20;99.90
26224;DHT22;14820;48.682;8.890;2024-01-30T11:15:09;6.30;99.90
26224;DHT22;14820;48.682;8.890;2024-01-30T11:20:19;6.50;99.90
26224;DHT22;14820;48.682;8.890;2024-01-30T11:22:46;6.60;99.90
26224;DHT22;14820;48.682;8.890;2024-01-30T11:25:13;6.80;99.90
26224;DHT22;14820;48.682;8.890;2024-01-30T11:27:39;6.90;99.90
26224;DHT22;14820;48.682;8.890;2024-01-30T11:30:07;6.90;99.90
26224;DHT22;14820;48.682;8.890;2024-01-30T11:32:33;7.00;99.90
26224;DHT22;14820;48.682;8.890;2024-01-30T11:34:59;7.10;99.90
26224;DHT22;14820;48.682;8.890;2024-01-30T11:37:28;7.10;99.90
26224;DHT22;14820;48.682;8.890;2024-01-30T11:39:56;7.20;99.90
26224;DHT22;14820;48.682;8.890;2024-01-30T11:42:23;7.30;99.90
26224;DHT22;14820;48.682;8.890;2024-01-30T11:44:50;7.40;99.90
26224;DHT22;14820;48.682;8.890;2024-01-30T11:47:16;7.50;99.90
26224;DHT22;14820;48.682;8.890;2024-01-30T11:49:43;7.60;99.90
26224;DHT22;14820;48.682;8.890;2024-01-30T11:52:09;7.80;99.90
26224;DHT22;14820;48.682;8.890;2024-01-30T11:54:35;8.00;99.90
26224;DHT22;14820;48.682;8.890;2024-01-30T11:57:00;8.00;99.90
26224;DHT22;14820;48.682;8.890;2024-01-30T11:59:26;8.10;99.90
26224;DHT22;14820;48.682;8.890;2024-01-30T12:01:52;8.20;99.90
26224;DHT22;14820;48.682;8.890;2024-01-30T12:04:18;8.30;99.90
26224;DHT22;14820;48.682;8.890;2024-01-30T12:06:43;8.40;99.90
26224;DHT22;14820;48.682;8.890;2024-01-30T12:09:10;8.50;99.90
26224;DHT22;14820;48.682;8.890;2024-01-30T12:11:44;8.60;99.90
26224;DHT22;14820;48.682;8.890;2024-01-30T12:14:11;8.70;99.90
26224;DHT22;14820;48.682;8.890;2024-01-30T12:16:37;8.80;99.90
26224;DHT22;14820;48.682;8.890;2024-01-30T12:19:03;9.00;99.90
26224;DHT22;14820;48.682;8.890;2024-01-30T12:21:29;9.10;99.90
26224;DHT22;14820;48.682;8.890;2024-01-30T12:23:55;9.20;99.90
26224;DHT22;14820;48.682;8.890;2024-01-30T12:26:21;9.30;99.90
26224;DHT22;14820;48.682;8.890;2024-01-30T12:28:50;9.40;99.90
26224;DHT22;14820;48.682;8.890;2024-01-30T12:31:16;9.50;99.90
26224;DHT22;14820;48.682;8.890;2024-01-30T12:33:41;9.60;99.90
26224;DHT22;14820;48.682;8.890;2024-01-30T12:36:07;9.70;99.90
26224;DHT22;14820;48.682;8.890;2024-01-30T12:38:33;9.70;99.90
26224;DHT22;14820;48.682;8.890;2024-01-30T12:40:59;9.90;99.90
26224;DHT22;14820;48.682;8.890;2024-01-30T12:43:25;10.10;99.90
26224;DHT22;14820;48.682;8.890;2024-01-30T12:45:52;10.40;99.90
26224;DHT22;14820;48.682;8.890;2024-01-30T12:48:18;10.50;99.90
26224;DHT22;14820;48.682;8.890;2024-01-30T12:50:44;10.70;99.90
26224;DHT22;14820;48.682;8.890;2024-01-30T12:53:09;10.70;99.90
26224;DHT22;14820;48.682;8.890;2024-01-30T12:55:35;10.80;99.90
26224;DHT22;14820;48.682;8.890;2024-01-30T12:58:01;10.90;99.90
26224;DHT22;14820;48.682;8.890;2024-01-30T13:00:27;11.00;99.90
26224;DHT22;14820;48.682;8.890;2024-01-30T13:02:52;11.00;99.90
26224;DHT22;14820;48.682;8.890;2024-01-30T13:05:18;11.20;99.90
26224;DHT22;14820;48.682;8.890;2024-01-30T13:07:44;11.20;99.90
26224;DHT22;14820;48.682;8.890;2024-01-30T13:10:10;11.30;99.90
26224;DHT22;14820;48.682;8.890;2024-01-30T13:12:36;11.40;99.90
26224;DHT22;14820;48.682;8.890;2024-01-30T13:15:02;11.50;99.90
26224;DHT22;14820;48.682;8.890;2024-01-30T13:17:30;11.50;99.90
26224;DHT22;14820;48.682;8.890;2024-01-30T13:19:56;11.60;99.90
26224;DHT22;14820;48.682;8.890;2024-01-30T13:22:22;11.60;99.90
26224;DHT22;14820;48.682;8.890;2024-01-30T13:24:48;11.80;99.90
26224;DHT22;14820;48.682;8.890;2024-01-30T13:27:13;11.90;99.90
26224;DHT22;14820;48.682;8.890;2024-01-30T13:29:39;11.90;99.90
26224;DHT22;14820;48.682;8.890;2024-01-30T13:32:05;11.80;99.90
26224;DHT22;14820;48.682;8.890;2024-01-30T13:34:31;11.90;99.90
26224;DHT22;14820;48.682;8.890;2024-01-30T13:36:56;11.90;99.90
26224;DHT22;14820;48.682;8.890;2024-01-30T13:39:22;11.90;99.90
26224;DHT22;14820;48.682;8.890;2024-01-30T13:41:48;11.90;99.90
26224;DHT22;14820;48.682;8.890;2024-01-30T13:44:15;11.90;99.90
26224;DHT22;14820;48.682;8.890;2024-01-30T13:46:42;11.90;99.90
26224;DHT22;14820;48.682;8.890;2024-01-30T13:49:08;11.90;99.90
26224;DHT22;14820;48.682;8.890;2024-01-30T13:51:33;11.90;99.90
26224;DHT22;14820;48.682;8.890;2024-01-30T13:53:59;11.90;99.90
26224;DHT22;14820;48.682;8.890;2024-01-30T13:56:25;11.90;99.90
26224;DHT22;14820;48.682;8.890;2024-01-30T13:58:52;11.90;99.90
26224;DHT22;14820;48.682;8.890;2024-01-30T14:01:18;11.80;99.90
26224;DHT22;14820;48.682;8.890;2024-01-30T14:03:44;11.80;99.90
26224;DHT22;14820;48.682;8.890;2024-01-30T14:06:10;11.70;99.90
26224;DHT22;14820;48.682;8.890;2024-01-30T14:08:36;11.70;99.90
26224;DHT22;14820;48.682;8.890;2024-01-30T14:11:02;11.60;99.90
26224;DHT22;14820;48.682;8.890;2024-01-30T14:13:29;11.60;99.90
26224;DHT22;14820;48.682;8.890;2024-01-30T14:15:56;11.60;99.90
26224;DHT22;14820;48.682;8.890;2024-01-30T14:18:22;11.60;99.90
26224;DHT22;14820;48.682;8.890;2024-01-30T14:20:47;11.60;99.90
26224;DHT22;14820;48.682;8.890;2024-01-30T14:23:13;11.70;99.90
26224;DHT22;14820;48.682;8.890;2024-01-30T14:25:39;11.60;99.90
26224;DHT22;14820;48.682;8.890;2024-01-30T14:28:05;11.60;99.90
26224;DHT22;14820;48.682;8.890;2024-01-30T14:30:30;11.60;99.90
26224;DHT22;14820;48.682;8.890;2024-01-30T14:32:56;11.60;99.90
26224;DHT22;14820;48.682;8.890;2024-01-30T14:35:22;11.50;99.90
26224;DHT22;14820;48.682;8.890;2024-01-30T14:37:47;11.50;99.90
26224;DHT22;14820;48.682;8.890;2024-01-30T14:40:13;11.40;99.90
26224;DHT22;14820;48.682;8.890;2024-01-30T14:42:39;11.40;99.90
26224;DHT22;14820;48.682;8.890;2024-01-30T14:45:06;11.40;99.90
26224;DHT22;14820;48.682;8.890;2024-01-30T14:47:32;11.40;99.90
26224;DHT22;14820;48.682;8.890;2024-01-30T14:49:57;11.30;99.90
26224;DHT22;14820;48.682;8.890;2024-01-30T14:52:23;11.30;99.90
26224;DHT22;14820;48.682;8.890;2024-01-30T14:54:49;11.30;99.90
26224;DHT22;14820;48.682;8.890;2024-01-30T14:57:15;11.20;99.90
26224;DHT22;14820;48.682;8.890;2024-01-30T14:59:40;11.30;99.90
26224;DHT22;14820;48.682;8.890;2024-01-30T15:02:07;11.30;99.90
26224;DHT22;14820;48.682;8.890;2024-01-30T15:04:33;11.20;99.90
26224;DHT22;14820;48.682;8.890;2024-01-30T15:06:58;11.20;99.90
26224;DHT22;14820;48.682;8.890;2024-01-30T15:09:24;11.20;99.90
26224;DHT22;14820;48.682;8.890;2024-01-30T15:11:52;11.20;99.90
26224;DHT22;14820;48.682;8.890;2024-01-30T15:14:18;11.10;99.90
26224;DHT22;14820;48.682;8.890;2024-01-30T15:16:43;11.10;99.90
26224;DHT22;14820;48.682;8.890;2024-01-30T15:19:09;11.00;99.90
26224;DHT22;14820;48.682;8.890;2024-01-30T15:21:35;11.00;99.90
26224;DHT22;14820;48.682;8.890;2024-01-30T15:24:02;10.90;99.90
26224;DHT22;14820;48.682;8.890;2024-01-30T15:26:28;10.90;99.90
26224;DHT22;14820;48.682;8.890;2024-01-30T15:28:54;10.90;99.90
26224;DHT22;14820;48.682;8.890;2024-01-30T15:31:19;10.80;99.90
26224;DHT22;14820;48.682;8.890;2024-01-30T15:33:45;10.80;99.90
26224;DHT22;14820;48.682;8.890;2024-01-30T15:36:11;10.70;99.90
26224;DHT22;14820;48.682;8.890;2024-01-30T15:38:40;10.70;99.90